Time;durP1;ratioP1;P1;durP2;ratioP2;P2;SDS_P1;SDS_P2;PMS_P1;PMS_P2;Temp;Humidity;BMP_temperature;BMP_pressure;BME280_temperature;BME280_humidity;BME280_pressure;Samples;Min_cycle;Max_cycle;Signal;HPM_P1;HPM_P2
2021/10/20 00:00:07;;;;;;;3.30;1.40;;;18.50;99.90;;;;;;5053746;28;20551;-81
2021/10/20 00:02:39;;;;;;;3.10;1.27;;;18.50;99.90;;;;;;5052364;28;20559;-81
2021/10/20 00:05:05;;;;;;;3.60;1.60;;;18.50;99.90;;;;;;5053733;28;20669;-81
2021/10/20 00:07:31;;;;;;;3.30;1.60;;;18.50;99.90;;;;;;5052757;28;20626;-81
2021/10/20 00:09:56;;;;;;;1.97;1.40;;;18.60;99.90;;;;;;5053859;28;20650;-81
2021/10/20 00:12:22;;;;;;;1.63;1.13;;;18.60;99.90;;;;;;5051925;28;20599;-81
2021/10/20 00:14:48;;;;;;;2.70;1.90;;;18.60;99.90;;;;;;5053054;28;20193;-82
2021/10/20 00:17:14;;;;;;;2.33;1.27;;;18.60;99.90;;;;;;5051932;28;20604;-81
2021/10/20 00:19:40;;;;;;;1.70;1.27;;;18.60;99.90;;;;;;5053500;28;20251;-81
2021/10/20 00:22:06;;;;;;;1.57;1.10;;;18.60;99.90;;;;;;5052766;28;20173;-81
2021/10/20 00:24:32;;;;;;;2.03;1.30;;;18.50;99.90;;;;;;5053164;28;20965;-81
2021/10/20 00:26:57;;;;;;;2.17;1.00;;;18.50;99.90;;;;;;5052945;28;20669;-82
2021/10/20 00:29:23;;;;;;;2.93;1.67;;;18.60;99.90;;;;;;5052165;28;20779;-82
2021/10/20 00:31:49;;;;;;;2.40;1.50;;;18.50;99.90;;;;;;5051295;28;20181;-81
2021/10/20 00:34:15;;;;;;;2.03;1.23;;;18.50;99.90;;;;;;5053149;28;20177;-81
2021/10/20 00:36:40;;;;;;;5.93;1.50;;;18.50;99.90;;;;;;5053181;28;20165;-81
2021/10/20 00:39:06;;;;;;;2.63;1.40;;;18.50;99.90;;;;;;5053117;28;20248;-81
2021/10/20 00:41:32;;;;;;;2.20;1.37;;;18.40;99.90;;;;;;5053214;28;20218;-81
2021/10/20 00:43:57;;;;;;;1.93;1.20;;;18.50;99.90;;;;;;5052747;28;20172;-81
2021/10/20 00:46:27;;;;;;;1.97;1.50;;;18.50;99.90;;;;;;5054431;28;20200;-81
2021/10/20 00:48:53;;;;;;;2.17;1.23;;;18.50;99.90;;;;;;5052793;28;20173;-81
2021/10/20 00:51:19;;;;;;;3.83;1.60;;;18.50;99.90;;;;;;5052766;28;20617;-81
2021/10/20 00:53:45;;;;;;;4.93;1.40;;;18.50;99.90;;;;;;5052414;28;20587;-81
2021/10/20 00:56:11;;;;;;;3.13;1.50;;;18.40;99.90;;;;;;5052492;28;20657;-81
2021/10/20 00:58:37;;;;;;;2.83;2.27;;;18.50;99.90;;;;;;5052536;28;20279;-81
2021/10/20 01:01:03;;;;;;;1.80;1.33;;;18.40;99.90;;;;;;5052676;28;20578;-81
2021/10/20 01:03:28;;;;;;;3.07;1.20;;;18.50;99.90;;;;;;5051941;28;20575;-81
2021/10/20 01:05:54;;;;;;;1.70;1.20;;;18.40;99.90;;;;;;5052489;28;20200;-81
2021/10/20 01:08:20;;;;;;;1.80;1.30;;;18.40;99.90;;;;;;5050906;28;20281;-81
2021/10/20 01:10:45;;;;;;;2.37;1.77;;;18.40;99.90;;;;;;5051149;28;20181;-81
2021/10/20 01:13:11;;;;;;;1.90;1.50;;;18.40;99.90;;;;;;5052086;28;20236;-81
2021/10/20 01:15:37;;;;;;;1.73;1.47;;;18.40;99.90;;;;;;5051989;28;20201;-81
2021/10/20 01:18:02;;;;;;;3.73;1.60;;;18.30;99.90;;;;;;5051137;28;20188;-81
2021/10/20 01:20:31;;;;;;;2.33;1.67;;;18.30;99.90;;;;;;5052376;28;20244;-82
2021/10/20 01:22:57;;;;;;;1.97;1.40;;;18.30;99.90;;;;;;5053502;28;21150;-81
2021/10/20 01:25:23;;;;;;;1.80;1.40;;;18.20;99.90;;;;;;5051925;28;20664;-81
2021/10/20 01:27:49;;;;;;;2.20;1.50;;;18.20;99.90;;;;;;5053422;28;21017;-81
2021/10/20 01:30:15;;;;;;;2.63;1.53;;;18.20;99.90;;;;;;5050787;28;20571;-81
2021/10/20 01:32:41;;;;;;;2.47;1.73;;;18.20;99.90;;;;;;5051857;28;20596;-81
2021/10/20 01:35:07;;;;;;;2.50;1.50;;;18.20;99.90;;;;;;5051995;28;20698;-81
2021/10/20 01:37:34;;;;;;;2.27;1.47;;;18.10;99.90;;;;;;5051614;28;20161;-81
2021/10/20 01:40:00;;;;;;;2.17;1.70;;;18.20;99.90;;;;;;5051868;28;20922;-81
2021/10/20 01:42:27;;;;;;;3.73;2.07;;;18.10;99.90;;;;;;5051744;28;20567;-81
2021/10/20 01:44:53;;;;;;;2.50;1.50;;;18.10;99.90;;;;;;5051656;28;20561;-81
2021/10/20 01:47:20;;;;;;;3.80;1.90;;;18.10;99.90;;;;;;5050464;28;20730;-81
2021/10/20 01:49:46;;;;;;;2.57;1.90;;;18.00;99.90;;;;;;5051939;28;20570;-81
2021/10/20 01:52:12;;;;;;;2.40;1.53;;;18.00;99.90;;;;;;5050876;28;20570;-81
2021/10/20 01:54:37;;;;;;;3.10;1.40;;;18.00;99.90;;;;;;5050543;28;20611;-81
2021/10/20 01:57:03;;;;;;;2.27;1.70;;;18.00;99.90;;;;;;5050546;28;20177;-81
2021/10/20 01:59:29;;;;;;;3.97;1.80;;;18.00;99.90;;;;;;5053255;28;20168;-81
2021/10/20 02:01:55;;;;;;;2.07;1.40;;;18.00;99.90;;;;;;5051192;28;20575;-81
2021/10/20 02:04:20;;;;;;;1.90;1.57;;;17.90;99.90;;;;;;5051742;28;20177;-81
2021/10/20 02:06:46;;;;;;;2.13;1.53;;;17.90;99.90;;;;;;5050142;28;20208;-81
2021/10/20 02:09:12;;;;;;;1.73;1.30;;;17.90;99.90;;;;;;5051792;28;20200;-81
2021/10/20 02:11:42;;;;;;;2.83;1.50;;;17.90;99.90;;;;;;5051456;28;20177;-81
2021/10/20 02:14:10;;;;;;;3.30;1.50;;;17.90;99.90;;;;;;5050208;28;20610;-81
2021/10/20 02:16:36;;;;;;;2.23;1.60;;;17.90;99.90;;;;;;5051148;28;20640;-81
2021/10/20 02:19:04;;;;;;;3.03;1.40;;;17.90;99.90;;;;;;5051594;28;21035;-81
2021/10/20 02:21:30;;;;;;;2.37;1.70;;;17.90;99.90;;;;;;5051249;28;20579;-81
2021/10/20 02:23:56;;;;;;;4.43;1.50;;;17.90;99.90;;;;;;5051144;28;20615;-81
2021/10/20 02:26:22;;;;;;;2.30;1.50;;;17.90;99.90;;;;;;5051184;28;20737;-81
2021/10/20 02:28:48;;;;;;;2.30;1.80;;;17.90;99.90;;;;;;5051284;28;20625;-81
2021/10/20 02:31:13;;;;;;;2.50;1.70;;;17.90;99.90;;;;;;5051494;28;20518;-81
2021/10/20 02:33:39;;;;;;;2.23;1.40;;;17.90;99.90;;;;;;5050959;28;20616;-81
2021/10/20 02:36:05;;;;;;;2.83;1.70;;;17.90;99.90;;;;;;5051831;28;20212;-82
2021/10/20 02:38:31;;;;;;;3.30;2.47;;;17.90;99.90;;;;;;5050090;28;20173;-81
2021/10/20 02:40:56;;;;;;;2.73;1.60;;;17.90;99.90;;;;;;5051371;28;20625;-81
2021/10/20 02:43:22;;;;;;;2.37;1.50;;;17.90;99.90;;;;;;5050837;28;20208;-81
2021/10/20 02:45:48;;;;;;;4.27;2.10;;;17.90;99.90;;;;;;5051343;28;20224;-81
2021/10/20 02:48:14;;;;;;;3.07;1.90;;;17.90;99.90;;;;;;5049703;28;20235;-81
2021/10/20 02:50:40;;;;;;;2.20;1.73;;;17.90;99.90;;;;;;5054599;28;20215;-81
2021/10/20 02:53:06;;;;;;;2.47;1.70;;;18.00;99.90;;;;;;5054574;28;21137;-81
2021/10/20 02:55:32;;;;;;;3.50;1.30;;;18.00;99.90;;;;;;5054770;28;20630;-81
2021/10/20 02:57:57;;;;;;;2.80;1.80;;;17.90;99.90;;;;;;5055126;28;20572;-81
2021/10/20 03:00:23;;;;;;;1.70;1.30;;;17.90;99.90;;;;;;5055120;28;20165;-81
2021/10/20 03:02:49;;;;;;;4.70;2.00;;;17.90;99.90;;;;;;5054404;28;20169;-81
2021/10/20 03:05:15;;;;;;;4.13;1.97;;;17.90;99.90;;;;;;5053280;28;20586;-81
2021/10/20 03:07:52;;;;;;;3.40;1.73;;;17.80;99.90;;;;;;5054807;28;20664;-80
2021/10/20 03:10:17;;;;;;;1.50;1.33;;;17.80;99.90;;;;;;5053523;28;20603;-81
2021/10/20 03:12:43;;;;;;;3.40;2.27;;;17.80;99.90;;;;;;5055274;28;20982;-81
2021/10/20 03:15:10;;;;;;;2.20;1.67;;;17.80;99.90;;;;;;5054026;28;21204;-81
2021/10/20 03:17:37;;;;;;;2.60;1.77;;;17.80;99.90;;;;;;5054798;28;20621;-81
2021/10/20 03:20:08;;;;;;;2.53;2.20;;;17.80;99.90;;;;;;5053261;28;21118;-81
2021/10/20 03:22:36;;;;;;;1.90;1.50;;;17.80;99.90;;;;;;5054135;28;20567;-81
2021/10/20 03:25:02;;;;;;;3.63;1.93;;;17.80;99.90;;;;;;5054116;28;20611;-81
2021/10/20 03:27:28;;;;;;;2.20;1.70;;;17.80;99.90;;;;;;5054488;28;20631;-81
2021/10/20 03:29:53;;;;;;;2.00;1.70;;;17.80;99.90;;;;;;5054282;28;20248;-81
2021/10/20 03:32:19;;;;;;;2.20;2.00;;;17.80;99.90;;;;;;5054082;28;20173;-81
2021/10/20 03:34:44;;;;;;;1.80;1.30;;;17.70;99.90;;;;;;5054266;28;20187;-81
2021/10/20 03:37:10;;;;;;;2.10;1.40;;;17.70;99.90;;;;;;5053176;28;20184;-81
2021/10/20 03:39:36;;;;;;;2.90;1.50;;;17.70;99.90;;;;;;5053975;28;20248;-81
2021/10/20 03:42:02;;;;;;;1.87;1.67;;;17.60;99.90;;;;;;5052639;28;20572;-81
2021/10/20 03:44:27;;;;;;;3.37;2.00;;;17.60;99.90;;;;;;5054062;28;20239;-81
2021/10/20 03:46:53;;;;;;;4.13;1.83;;;17.60;99.90;;;;;;5054259;28;20204;-82
2021/10/20 03:49:19;;;;;;;2.67;1.60;;;17.60;99.90;;;;;;5054762;28;20223;-81
2021/10/20 03:51:45;;;;;;;2.03;1.50;;;17.60;99.90;;;;;;5055545;28;20615;-82
2021/10/20 03:54:10;;;;;;;4.40;1.53;;;17.60;99.90;;;;;;5054041;28;20179;-81
2021/10/20 03:56:36;;;;;;;2.00;1.57;;;17.70;99.90;;;;;;5052508;28;20926;-81
2021/10/20 03:59:02;;;;;;;1.73;1.40;;;17.70;99.90;;;;;;5053979;28;20169;-81
2021/10/20 04:01:27;;;;;;;2.23;1.53;;;17.60;99.90;;;;;;5053519;28;20169;-81
2021/10/20 04:03:53;;;;;;;3.30;1.60;;;17.70;99.90;;;;;;5053759;28;20486;-81
2021/10/20 04:06:19;;;;;;;3.13;1.40;;;17.70;99.90;;;;;;5053554;28;20276;-81
2021/10/20 04:08:46;;;;;;;3.30;1.57;;;17.70;99.90;;;;;;5054037;28;20549;-81
2021/10/20 04:11:12;;;;;;;2.20;2.00;;;17.70;99.90;;;;;;5053556;28;20540;-81
2021/10/20 04:13:37;;;;;;;5.13;1.70;;;17.70;99.90;;;;;;5053328;28;20583;-81
2021/10/20 04:16:03;;;;;;;3.57;1.57;;;17.60;99.90;;;;;;5053713;28;20628;-79
2021/10/20 04:18:29;;;;;;;2.07;1.60;;;17.70;99.90;;;;;;5053120;28;20227;-79
2021/10/20 04:20:54;;;;;;;2.10;1.90;;;17.60;99.90;;;;;;5053346;28;20583;-78
2021/10/20 04:23:20;;;;;;;2.37;1.80;;;17.60;99.90;;;;;;5053120;28;20236;-78
2021/10/20 04:25:46;;;;;;;2.70;1.90;;;17.60;99.90;;;;;;5053772;28;20189;-78
2021/10/20 04:28:11;;;;;;;2.17;1.70;;;17.60;99.90;;;;;;5053361;28;20566;-78
2021/10/20 04:30:38;;;;;;;1.97;1.53;;;17.60;99.90;;;;;;5053349;28;20659;-79
2021/10/20 04:33:03;;;;;;;2.83;1.80;;;17.60;99.90;;;;;;5052924;28;20557;-79
2021/10/20 04:35:29;;;;;;;4.10;1.60;;;17.60;99.90;;;;;;5053162;28;20652;-79
2021/10/20 04:37:55;;;;;;;2.27;1.57;;;17.60;99.90;;;;;;5053006;28;20211;-79
2021/10/20 04:40:20;;;;;;;3.00;1.97;;;17.60;99.90;;;;;;5053064;28;20530;-79
2021/10/20 04:42:46;;;;;;;2.77;1.87;;;17.60;99.90;;;;;;5052574;28;20177;-78
2021/10/20 04:45:12;;;;;;;3.17;1.83;;;17.70;99.90;;;;;;5052899;28;20185;-79
2021/10/20 04:47:38;;;;;;;1.93;1.60;;;17.60;99.90;;;;;;5052752;28;20219;-78
2021/10/20 04:50:06;;;;;;;2.47;1.77;;;17.60;99.90;;;;;;5053064;28;20581;-79
2021/10/20 04:52:33;;;;;;;2.40;2.10;;;17.70;99.90;;;;;;5052649;28;20169;-79
2021/10/20 04:54:59;;;;;;;2.83;1.83;;;17.70;99.90;;;;;;5051072;28;21024;-79
2021/10/20 04:57:25;;;;;;;2.70;1.63;;;17.70;99.90;;;;;;5052953;28;20568;-78
2021/10/20 04:59:50;;;;;;;2.43;1.50;;;17.80;99.90;;;;;;5052490;28;20578;-79
2021/10/20 05:02:16;;;;;;;2.20;1.70;;;17.80;99.90;;;;;;5052928;28;20176;-79
2021/10/20 05:04:42;;;;;;;2.73;1.70;;;17.80;99.90;;;;;;5054954;28;20231;-79
2021/10/20 05:07:10;;;;;;;2.80;1.73;;;17.80;99.90;;;;;;5052665;28;20193;-79
2021/10/20 05:09:38;;;;;;;3.27;2.47;;;17.90;99.90;;;;;;5052244;28;20602;-79
2021/10/20 05:12:04;;;;;;;1.63;1.33;;;17.90;99.90;;;;;;5051462;28;20594;-79
2021/10/20 05:14:30;;;;;;;3.60;1.73;;;17.90;99.90;;;;;;5051892;28;20570;-79
2021/10/20 05:16:56;;;;;;;2.90;2.03;;;18.00;99.90;;;;;;5052427;28;20583;-79
2021/10/20 05:19:22;;;;;;;2.20;1.70;;;18.00;99.90;;;;;;5050864;28;20169;-79
2021/10/20 05:21:47;;;;;;;2.43;1.50;;;18.00;99.90;;;;;;5052053;28;20176;-79
2021/10/20 05:24:13;;;;;;;2.27;1.40;;;18.10;99.90;;;;;;5052040;28;20583;-79
2021/10/20 05:26:39;;;;;;;2.27;1.60;;;18.00;99.90;;;;;;5052099;28;20169;-79
2021/10/20 05:29:05;;;;;;;3.47;1.67;;;18.10;99.90;;;;;;5052384;28;20177;-79
2021/10/20 05:31:32;;;;;;;2.23;1.90;;;18.00;99.90;;;;;;5051928;28;20169;-78
2021/10/20 05:33:57;;;;;;;7.40;2.63;;;18.00;99.90;;;;;;5051844;28;20196;-79
2021/10/20 05:36:23;;;;;;;2.70;1.90;;;18.00;99.90;;;;;;5052068;28;20664;-79
2021/10/20 05:38:50;;;;;;;2.67;2.03;;;18.00;99.90;;;;;;5052640;28;20227;-79
2021/10/20 05:41:15;;;;;;;3.60;2.20;;;18.00;99.90;;;;;;5054990;28;20264;-79
2021/10/20 05:43:42;;;;;;;2.63;2.43;;;18.00;99.90;;;;;;5051686;28;20611;-79
2021/10/20 05:46:08;;;;;;;3.00;1.70;;;17.90;99.90;;;;;;5051685;28;20700;-79
2021/10/20 05:48:34;;;;;;;2.63;2.07;;;17.90;99.90;;;;;;5051796;28;20679;-79
2021/10/20 05:51:00;;;;;;;3.67;1.93;;;17.90;99.90;;;;;;5051590;28;20575;-79
2021/10/20 05:53:26;;;;;;;2.43;1.50;;;18.00;99.90;;;;;;5051307;28;20180;-78
2021/10/20 05:55:52;;;;;;;3.10;1.60;;;18.00;99.90;;;;;;5051444;28;21220;-78
2021/10/20 05:58:17;;;;;;;3.27;2.00;;;17.90;99.90;;;;;;5050594;28;20594;-79
2021/10/20 06:00:44;;;;;;;3.40;2.10;;;18.00;99.90;;;;;;5051326;28;20248;-79
2021/10/20 06:03:10;;;;;;;2.67;2.10;;;18.00;99.90;;;;;;5050196;28;20256;-79
2021/10/20 06:05:37;;;;;;;2.10;1.83;;;18.00;99.90;;;;;;5049837;28;21044;-78
2021/10/20 06:08:03;;;;;;;4.87;2.60;;;18.00;99.90;;;;;;5050847;28;20234;-79
2021/10/20 06:10:28;;;;;;;4.03;2.20;;;18.00;99.90;;;;;;5051344;28;20564;-79
2021/10/20 06:12:54;;;;;;;3.20;2.23;;;18.00;99.90;;;;;;5050530;28;20560;-79
2021/10/20 06:15:24;;;;;;;3.93;2.37;;;18.00;99.90;;;;;;5050991;28;20303;-79
2021/10/20 06:17:50;;;;;;;2.37;1.83;;;18.00;99.90;;;;;;5051455;28;20644;-78
2021/10/20 06:20:17;;;;;;;4.10;1.97;;;18.00;99.90;;;;;;5051151;28;20575;-79
2021/10/20 06:22:43;;;;;;;3.10;2.17;;;18.00;99.90;;;;;;5050567;28;20586;-78
2021/10/20 06:25:10;;;;;;;2.40;2.00;;;18.00;99.90;;;;;;5054827;28;20599;-78
2021/10/20 06:27:36;;;;;;;3.40;2.23;;;18.00;99.90;;;;;;5054820;28;20627;-76
2021/10/20 06:30:03;;;;;;;3.20;2.80;;;17.90;99.90;;;;;;5054971;28;20559;-76
2021/10/20 06:32:29;;;;;;;3.90;3.20;;;17.90;99.90;;;;;;5054823;28;20569;-76
2021/10/20 06:34:54;;;;;;;3.33;2.23;;;17.90;99.90;;;;;;5054781;28;20587;-76
2021/10/20 06:37:20;;;;;;;3.40;2.33;;;17.90;99.90;;;;;;5054945;28;20169;-76
2021/10/20 06:39:46;;;;;;;3.93;2.40;;;17.90;99.90;;;;;;5053598;28;20207;-77
2021/10/20 06:42:11;;;;;;;2.53;2.13;;;17.90;99.90;;;;;;5054820;28;20165;-77
2021/10/20 06:44:37;;;;;;;2.63;2.40;;;17.80;99.90;;;;;;5054811;28;20518;-77
2021/10/20 06:47:03;;;;;;;3.30;2.17;;;17.80;99.90;;;;;;5054915;28;20251;-77
2021/10/20 06:49:29;;;;;;;4.33;2.30;;;17.80;99.90;;;;;;5054580;28;20172;-77
2021/10/20 06:51:54;;;;;;;3.97;2.17;;;17.80;99.90;;;;;;5054342;28;20583;-77
2021/10/20 06:54:20;;;;;;;3.50;3.03;;;17.80;99.90;;;;;;5055253;28;20383;-77
2021/10/20 06:56:50;;;;;;;2.80;2.50;;;17.80;99.90;;;;;;5056988;28;20173;-77
2021/10/20 06:59:17;;;;;;;3.70;2.47;;;17.80;99.90;;;;;;5055191;28;20264;-77
2021/10/20 07:01:43;;;;;;;2.83;2.20;;;17.70;99.90;;;;;;5053532;28;20567;-80
2021/10/20 07:04:10;;;;;;;2.10;1.90;;;17.80;99.90;;;;;;5054326;28;20598;-77
2021/10/20 07:06:37;;;;;;;3.00;2.43;;;17.90;99.90;;;;;;5052234;28;20732;-77
2021/10/20 07:09:05;;;;;;;6.77;2.40;;;17.90;99.90;;;;;;5034939;28;20560;-76
2021/10/20 07:11:31;;;;;;;6.93;3.00;;;17.90;99.90;;;;;;5033416;28;20580;-77
2021/10/20 07:13:57;;;;;;;4.40;2.30;;;17.90;99.90;;;;;;5033308;28;20576;-77
2021/10/20 07:16:22;;;;;;;3.03;2.50;;;17.90;99.90;;;;;;5033312;28;20627;-77
2021/10/20 07:18:49;;;;;;;3.00;2.10;;;18.00;99.90;;;;;;5034606;28;20182;-77
2021/10/20 07:21:15;;;;;;;3.40;3.10;;;18.00;99.90;;;;;;5049254;28;20168;-77
2021/10/20 07:23:41;;;;;;;3.60;2.37;;;18.00;99.90;;;;;;5054107;28;21183;-78
2021/10/20 07:26:06;;;;;;;2.77;2.27;;;18.00;99.90;;;;;;5052614;28;20526;-77
2021/10/20 07:28:32;;;;;;;3.10;2.50;;;18.00;99.90;;;;;;5053919;28;20590;-77
2021/10/20 07:30:58;;;;;;;2.57;1.80;;;18.10;99.90;;;;;;5052997;28;20772;-78
2021/10/20 07:33:24;;;;;;;3.80;2.13;;;18.20;99.90;;;;;;5054931;28;20671;-78
2021/10/20 07:35:49;;;;;;;1.87;1.67;;;18.20;99.90;;;;;;5053223;28;20275;-78
2021/10/20 07:38:16;;;;;;;5.73;2.43;;;18.30;99.90;;;;;;5054151;28;20170;-78
2021/10/20 07:40:41;;;;;;;4.37;2.97;;;18.30;99.90;;;;;;5053911;28;20173;-78
2021/10/20 07:43:08;;;;;;;4.10;1.80;;;18.40;99.90;;;;;;5052676;28;20632;-78
2021/10/20 07:45:33;;;;;;;5.03;2.60;;;18.40;99.90;;;;;;5052325;28;20193;-77
2021/10/20 07:47:59;;;;;;;2.30;2.10;;;18.50;99.90;;;;;;5053840;28;20638;-77
2021/10/20 07:50:25;;;;;;;5.00;2.70;;;18.50;99.90;;;;;;5053777;28;20521;-78
2021/10/20 07:52:52;;;;;;;5.20;2.27;;;18.60;99.90;;;;;;5052304;28;20161;-77
2021/10/20 07:55:21;;;;;;;2.80;2.00;;;18.70;99.90;;;;;;5053515;28;20189;-77
2021/10/20 07:57:47;;;;;;;2.70;2.40;;;18.80;99.90;;;;;;5053681;28;20587;-78
2021/10/20 08:00:15;;;;;;;3.63;2.33;;;18.90;99.90;;;;;;5053865;28;20567;-77
2021/10/20 08:02:42;;;;;;;2.67;2.10;;;18.90;99.90;;;;;;5051928;28;20607;-78
2021/10/20 08:05:11;;;;;;;4.03;2.50;;;19.00;99.90;;;;;;5053425;28;20734;-78
2021/10/20 08:07:43;;;;;;;2.90;2.60;;;19.00;99.90;;;;;;5052193;28;21274;-77
2021/10/20 08:10:10;;;;;;;2.43;1.70;;;19.10;99.90;;;;;;5054103;28;20567;-78
2021/10/20 08:12:36;;;;;;;4.10;2.37;;;19.10;99.90;;;;;;5052801;28;20580;-78
2021/10/20 08:15:02;;;;;;;2.33;1.90;;;19.10;99.90;;;;;;5053218;28;20610;-78
2021/10/20 08:17:28;;;;;;;2.27;1.50;;;19.20;99.90;;;;;;5052987;28;20172;-77
2021/10/20 08:19:54;;;;;;;2.60;1.70;;;19.20;99.90;;;;;;5053647;28;20575;-78
2021/10/20 08:22:19;;;;;;;2.60;1.70;;;19.20;99.90;;;;;;5051501;28;20227;-78
2021/10/20 08:24:45;;;;;;;2.60;1.60;;;19.20;99.90;;;;;;5053380;28;20193;-78
2021/10/20 08:27:11;;;;;;;2.97;2.27;;;19.30;99.90;;;;;;5052095;28;20212;-78
2021/10/20 08:29:37;;;;;;;4.33;1.90;;;19.20;99.90;;;;;;5051771;28;20211;-78
2021/10/20 08:32:05;;;;;;;2.70;1.53;;;19.30;99.90;;;;;;5053008;28;20532;-78
2021/10/20 08:34:31;;;;;;;2.90;2.43;;;19.20;99.90;;;;;;5052640;28;21341;-78
2021/10/20 08:36:56;;;;;;;3.07;2.40;;;19.20;99.90;;;;;;5053168;28;20587;-78
2021/10/20 08:39:22;;;;;;;3.47;2.10;;;19.20;99.90;;;;;;5052996;28;20169;-79
2021/10/20 08:41:49;;;;;;;2.50;2.00;;;19.20;99.90;;;;;;5052616;28;20179;-78
2021/10/20 08:44:16;;;;;;;3.27;1.90;;;19.20;99.90;;;;;;5052845;28;20177;-78
2021/10/20 08:46:41;;;;;;;3.70;2.50;;;19.20;99.90;;;;;;5051364;28;20637;-78
2021/10/20 08:49:09;;;;;;;2.80;2.40;;;19.20;99.90;;;;;;5051859;28;21174;-78
2021/10/20 08:51:35;;;;;;;3.93;2.37;;;19.30;99.90;;;;;;5053156;28;20236;-78
2021/10/20 08:54:01;;;;;;;2.97;2.33;;;19.40;99.90;;;;;;5052968;28;20567;-78
2021/10/20 08:56:27;;;;;;;2.93;2.10;;;19.40;99.90;;;;;;5052394;28;20611;-78
2021/10/20 08:58:53;;;;;;;2.40;1.90;;;19.40;99.90;;;;;;5052780;28;20590;-78
2021/10/20 09:01:19;;;;;;;3.00;2.23;;;19.40;99.90;;;;;;5052304;28;20583;-78
2021/10/20 09:03:45;;;;;;;2.60;1.77;;;19.40;99.90;;;;;;5052108;28;20183;-78
2021/10/20 09:06:10;;;;;;;2.43;2.13;;;19.40;99.90;;;;;;5050813;28;20193;-79
2021/10/20 09:08:44;;;;;;;4.63;2.30;;;19.40;99.90;;;;;;5052615;28;20193;-79
2021/10/20 09:11:37;;;;;;;3.20;2.03;;;19.40;99.90;;;;;;5052167;28;20223;-78
2021/10/20 09:14:14;;;;;;;2.13;1.70;;;19.40;99.90;;;;;;5050672;28;20597;-78
2021/10/20 09:16:43;;;;;;;4.37;2.57;;;19.50;99.90;;;;;;5052439;28;20614;-78
2021/10/20 09:19:23;;;;;;;2.63;1.90;;;19.60;99.90;;;;;;5052172;28;20578;-78
2021/10/20 09:21:56;;;;;;;2.67;1.90;;;19.60;99.90;;;;;;5051475;28;20663;-78
2021/10/20 09:24:23;;;;;;;2.50;2.30;;;19.60;99.90;;;;;;5053412;28;20560;-77
2021/10/20 09:26:55;;;;;;;3.83;2.03;;;19.70;99.90;;;;;;5051860;28;20602;-77
2021/10/20 09:29:25;;;;;;;2.93;1.77;;;19.70;99.90;;;;;;5051707;28;20562;-77
2021/10/20 09:31:51;;;;;;;3.17;2.40;;;19.80;99.90;;;;;;5051767;28;20583;-77
2021/10/20 09:34:17;;;;;;;3.80;2.57;;;19.80;99.90;;;;;;5051321;28;20611;-77
2021/10/20 09:36:43;;;;;;;6.17;2.13;;;19.80;99.90;;;;;;5051806;28;21137;-77
2021/10/20 09:39:11;;;;;;;3.30;2.73;;;19.80;99.90;;;;;;5051511;28;20617;-76
2021/10/20 09:41:36;;;;;;;4.20;2.90;;;19.80;99.90;;;;;;5051655;28;20587;-77
2021/10/20 09:44:02;;;;;;;2.90;2.50;;;19.70;99.90;;;;;;5051147;28;20598;-77
2021/10/20 09:46:31;;;;;;;3.20;2.57;;;19.70;99.90;;;;;;5051597;28;20181;-77
2021/10/20 09:49:01;;;;;;;3.40;2.83;;;19.70;99.90;;;;;;5051242;28;20200;-78
2021/10/20 09:51:27;;;;;;;3.50;2.47;;;19.70;99.90;;;;;;5051568;28;20571;-77
2021/10/20 09:53:53;;;;;;;2.37;1.80;;;19.70;99.90;;;;;;5051483;28;21118;-78
2021/10/20 09:56:27;;;;;;;3.30;2.50;;;19.80;99.90;;;;;;5051259;28;20189;-78
2021/10/20 09:58:53;;;;;;;3.50;3.20;;;19.80;99.90;;;;;;5051598;28;20571;-77
2021/10/20 10:01:20;;;;;;;4.70;3.10;;;19.90;99.90;;;;;;5053524;28;20560;-77
2021/10/20 10:03:47;;;;;;;2.30;2.00;;;20.00;99.90;;;;;;5051080;28;20602;-77
2021/10/20 10:06:13;;;;;;;3.73;2.50;;;20.00;99.90;;;;;;5051014;28;20975;-78
2021/10/20 10:08:40;;;;;;;2.77;2.50;;;20.10;99.90;;;;;;5051293;28;20643;-77
2021/10/20 10:11:06;;;;;;;3.83;2.30;;;20.10;99.90;;;;;;5051043;28;20987;-78
2021/10/20 10:13:54;;;;;;;5.10;2.80;;;20.10;99.90;;;;;;5049786;28;20679;-77
2021/10/20 10:16:23;;;;;;;5.77;2.60;;;20.10;99.90;;;;;;5049116;28;20219;-77
2021/10/20 10:18:49;;;;;;;3.97;2.47;;;20.10;99.90;;;;;;5050475;28;20658;-82
2021/10/20 10:21:31;;;;;;;3.03;2.73;;;20.00;99.90;;;;;;5051579;28;20965;-81
2021/10/20 10:23:58;;;;;;;5.13;3.60;;;20.00;99.90;;;;;;5051090;28;20559;-81
2021/10/20 10:26:25;;;;;;;6.80;2.63;;;19.90;99.90;;;;;;5051436;28;20606;-82
2021/10/20 10:29:12;;;;;;;7.00;3.30;;;19.90;99.90;;;;;;5051030;28;20681;-82
2021/10/20 10:31:43;;;;;;;3.40;2.77;;;19.80;99.90;;;;;;5050079;28;20651;-82
2021/10/20 10:34:33;;;;;;;3.73;3.43;;;19.70;99.90;;;;;;5049339;28;20607;-82
2021/10/20 10:37:00;;;;;;;3.47;2.83;;;19.70;99.90;;;;;;5050146;28;21189;-83
2021/10/20 10:39:31;;;;;;;3.17;2.80;;;19.70;99.90;;;;;;5050906;28;20560;-83
2021/10/20 10:42:02;;;;;;;2.93;2.20;;;19.70;99.90;;;;;;5050866;28;20966;-82
2021/10/20 10:44:49;;;;;;;3.50;2.70;;;19.80;99.90;;;;;;5050774;28;20579;-83
2021/10/20 10:47:28;;;;;;;3.97;2.80;;;19.80;99.90;;;;;;5050824;28;20639;-82
2021/10/20 10:49:55;;;;;;;3.10;2.70;;;19.90;99.90;;;;;;5051124;28;20718;-82
2021/10/20 10:52:21;;;;;;;3.77;2.73;;;19.90;99.90;;;;;;5050830;28;20582;-82
2021/10/20 10:55:14;;;;;;;4.23;2.80;;;19.90;99.90;;;;;;5051403;28;20686;-82
2021/10/20 10:57:43;;;;;;;2.63;2.27;;;20.00;99.90;;;;;;5050602;28;20173;-81
2021/10/20 11:00:09;;;;;;;2.90;2.50;;;20.10;99.90;;;;;;5052170;28;20579;-83
2021/10/20 11:02:47;;;;;;;3.30;2.83;;;20.20;99.90;;;;;;5051946;28;20606;-82
2021/10/20 11:05:14;;;;;;;4.97;2.83;;;20.20;99.90;;;;;;5051814;28;20729;-82
2021/10/20 11:07:47;;;;;;;2.80;2.33;;;20.30;99.90;;;;;;5053265;28;21034;-81
2021/10/20 11:10:14;;;;;;;3.23;2.27;;;20.40;99.90;;;;;;5054987;28;20621;-81
2021/10/20 11:12:40;;;;;;;5.10;2.53;;;20.40;99.90;;;;;;5064505;28;20946;-83
2021/10/20 11:15:09;;;;;;;3.10;2.80;;;20.50;99.90;;;;;;5073861;28;20633;-83
2021/10/20 11:17:35;;;;;;;3.00;2.67;;;20.50;99.90;;;;;;5073993;28;20551;-83
2021/10/20 11:20:07;;;;;;;2.70;2.27;;;20.40;99.90;;;;;;5075187;28;20581;-82
2021/10/20 11:22:33;;;;;;;2.67;2.47;;;20.40;99.90;;;;;;5075419;28;20616;-83
2021/10/20 11:24:59;;;;;;;4.13;3.37;;;20.40;99.90;;;;;;5060378;28;20622;-83
2021/10/20 11:27:25;;;;;;;3.57;2.30;;;20.30;99.90;;;;;;5059464;28;20637;-83
2021/10/20 11:29:53;;;;;;;3.30;2.97;;;20.20;99.90;;;;;;5058476;28;20568;-82
2021/10/20 11:32:21;;;;;;;3.20;2.90;;;20.20;99.90;;;;;;5062663;28;20563;-83
2021/10/20 11:34:47;;;;;;;2.97;2.67;;;20.10;99.90;;;;;;5056715;28;20674;-82
2021/10/20 11:37:18;;;;;;;4.07;2.07;;;20.10;99.90;;;;;;5054411;28;20566;-83
2021/10/20 11:39:57;;;;;;;4.07;2.93;;;20.00;99.90;;;;;;5053952;28;20576;-82
2021/10/20 11:42:24;;;;;;;4.10;3.70;;;20.00;99.90;;;;;;5053930;28;20562;-82
2021/10/20 11:44:51;;;;;;;2.87;2.57;;;20.00;99.90;;;;;;5053972;28;20587;-83
2021/10/20 11:47:18;;;;;;;3.10;2.80;;;19.90;99.90;;;;;;5053939;28;20708;-83
2021/10/20 11:49:50;;;;;;;3.63;2.93;;;19.90;99.90;;;;;;5054872;28;20617;-83
2021/10/20 11:52:22;;;;;;;4.13;3.13;;;19.90;99.90;;;;;;5056084;28;20590;-83
2021/10/20 11:54:48;;;;;;;3.93;3.53;;;20.00;99.90;;;;;;5053715;28;20599;-83
2021/10/20 11:57:18;;;;;;;2.67;2.47;;;20.00;99.90;;;;;;5053468;28;20563;-82
2021/10/20 11:59:44;;;;;;;2.73;2.53;;;20.10;99.90;;;;;;5054293;28;20575;-82
2021/10/20 12:02:12;;;;;;;3.30;2.83;;;20.20;99.90;;;;;;5054429;28;20663;-82
2021/10/20 12:04:40;;;;;;;2.70;2.40;;;20.30;99.90;;;;;;5055954;28;20598;-82
2021/10/20 12:07:10;;;;;;;3.30;3.00;;;20.40;99.90;;;;;;5055433;28;20665;-82
2021/10/20 12:09:41;;;;;;;5.43;2.57;;;20.50;99.90;;;;;;5055645;28;20591;-82
2021/10/20 12:12:07;;;;;;;4.67;2.43;;;20.70;99.90;;;;;;5052462;28;20572;-82
2021/10/20 12:14:41;;;;;;;2.70;2.30;;;20.80;99.90;;;;;;5052294;28;20656;-82
2021/10/20 12:17:08;;;;;;;2.63;2.43;;;20.90;99.90;;;;;;5053112;28;20613;-82
2021/10/20 12:19:38;;;;;;;2.80;2.43;;;21.00;99.90;;;;;;5053559;28;20564;-81
2021/10/20 12:22:09;;;;;;;3.10;2.30;;;21.10;99.90;;;;;;5052643;28;20572;-82
2021/10/20 12:24:55;;;;;;;2.20;1.90;;;21.20;99.90;;;;;;5051986;28;20611;-83
2021/10/20 12:27:23;;;;;;;2.53;1.77;;;21.20;99.90;;;;;;5054311;28;20683;-84
2021/10/20 12:29:52;;;;;;;2.60;2.30;;;21.30;99.90;;;;;;5053351;28;20651;-84
2021/10/20 12:32:30;;;;;;;2.73;2.03;;;21.40;99.90;;;;;;5052460;28;20559;-82
2021/10/20 12:35:00;;;;;;;2.43;2.10;;;21.50;99.90;;;;;;5052974;28;20633;-84
2021/10/20 12:37:52;;;;;;;2.40;2.20;;;21.50;99.90;;;;;;5052805;28;20571;-83
2021/10/20 12:40:24;;;;;;;3.10;2.57;;;21.60;99.90;;;;;;5048828;28;20644;-82
2021/10/20 12:43:02;;;;;;;2.40;1.90;;;21.80;99.90;;;;;;5052871;28;20568;-82
2021/10/20 12:45:29;;;;;;;4.00;2.97;;;21.90;99.90;;;;;;5051651;28;20610;-82
2021/10/20 12:47:58;;;;;;;2.90;2.00;;;22.10;99.90;;;;;;5052731;28;20614;-82